Argyle, Illinois
Current Conditions -  °F | °C
As of 8:54 PM on Saturday 22 Nov 2014 (Local Time) from KRFD Reporting Station
Overcast Overcast  
Wind Chill: 45°   Ceiling: 1800
Heat Index: 49°   Visibility: 8mi
Dew Point: 45°   Wind: 9mph
Humidity: 86%   Direction: 180°S
Pressure: 29.83"   Gusts: NA
Location:  42.3911°N, 88.9094°W
Report Text: KRFD 230254Z 18008KT 8SM OVC018 09/07 A2983 RMK AO2 SLP107 T00940072 58002
Loading
Personal Weather Stations






























Interactive Weather Map New forecast layout! Learn more

10-Day Weather Forecast

Advertisements
Track Severe Weather on mobile